Seminole, FL (33772)

11:10 PM EST on December 09, 2016 (GMT -0500)
Ridgewood Estates | | Change Station

Elev 48 ft 27.85 °N, 82.80 °W | Updated 20 seconds ago

Partly Cloudy
Partly Cloudy
53.1 °F
Feels Like 53.1 °F
N
1.0
Wind Variable Wind from ENE
Gusts 9.0 mph

Today
High -- | Low -- °F
--% Chance of Precip.
Yesterday
High -- | Low -- °F
Precip. -- in
Pressure 30.35 in
Visibility 10.0 miles
Clouds Clear
Dew Point 43 °F
Humidity 68%
Rainfall 0.05 in
Snow Depth Not available.
7:11 AM 5:36 PM
Waxing Gibbous, 80% visible
METAR KPIE 100353Z AUTO 03013KT 10SM CLR 12/06 A3035 RMK AO2 SLP277 T01220056
Pressure 30.35 in
Visibility 10.0 miles
Clouds Clear
Dew Point 43 °F
Humidity 68%
Rainfall 0.05 in
Snow Depth Not available.
7:11 AM 5:36 PM
Waxing Gibbous, 80% visible
METAR KPIE 100353Z AUTO 03013KT 10SM CLR 12/06 A3035 RMK AO2 SLP277 T01220056

10-Day Weather Forecast

Almanac

Astronomy

Dec. 09, 2016 Rise Set
Actual Time
Civil Twilight
Nautical Twilight
Astronomical Twilight
Moon
Length of Visible Light
Length of Day
Tomorrow will be .
, % of the Moon is Illuminated

Today's Extremes

State Highs State Lows

Community

WunderPhotos

Upload Photos

1,956,529 photos uploaded!

WunderBlog® & News

Nearby

Air Quality

  Air Quality AQ Index Pollutant
Not available.

Snow Depth

Station Depth Elevation

Earthquake Activity

City Distance Mag. Time & Date
Minimum magnitude displayed is 2.5.

Coastal Water Temperatures

Place Temperature

Stations

Nearby Weather Stations

Station Location Temp. Windchill Dew Point Humidity Wind Precip. Elev Updated Type
                   

Watches & Warnings

There are currently no watches in effect.